sensor_id;sensor_type;location;lat;lon;timestamp;P1;durP1;ratioP1;P2;durP2;ratioP2
7160;SDS011;3622;53.576;9.978;2023-05-21T00:01:00;2.80;;;2.27;;
7160;SDS011;3622;53.576;9.978;2023-05-21T00:03:27;4.00;;;2.50;;
7160;SDS011;3622;53.576;9.978;2023-05-21T00:05:54;5.00;;;2.10;;
7160;SDS011;3622;53.576;9.978;2023-05-21T00:08:20;4.80;;;2.07;;
7160;SDS011;3622;53.576;9.978;2023-05-21T00:10:46;3.13;;;2.20;;
7160;SDS011;3622;53.576;9.978;2023-05-21T00:13:12;3.57;;;2.03;;
7160;SDS011;3622;53.576;9.978;2023-05-21T00:15:38;2.70;;;2.03;;
7160;SDS011;3622;53.576;9.978;2023-05-21T00:18:04;4.17;;;2.53;;
7160;SDS011;3622;53.576;9.978;2023-05-21T00:20:30;3.73;;;2.53;;
7160;SDS011;3622;53.576;9.978;2023-05-21T00:22:57;3.50;;;1.90;;
7160;SDS011;3622;53.576;9.978;2023-05-21T00:25:23;3.33;;;2.10;;
7160;SDS011;3622;53.576;9.978;2023-05-21T00:27:49;3.30;;;2.30;;
7160;SDS011;3622;53.576;9.978;2023-05-21T00:30:15;2.97;;;2.50;;
7160;SDS011;3622;53.576;9.978;2023-05-21T00:32:41;4.53;;;2.23;;
7160;SDS011;3622;53.576;9.978;2023-05-21T00:35:07;2.60;;;2.40;;
7160;SDS011;3622;53.576;9.978;2023-05-21T00:37:33;4.77;;;2.40;;
7160;SDS011;3622;53.576;9.978;2023-05-21T00:39:59;2.87;;;2.40;;
7160;SDS011;3622;53.576;9.978;2023-05-21T00:42:25;4.43;;;2.20;;
7160;SDS011;3622;53.576;9.978;2023-05-21T00:44:54;2.63;;;2.40;;
7160;SDS011;3622;53.576;9.978;2023-05-21T00:47:20;3.77;;;2.60;;
7160;SDS011;3622;53.576;9.978;2023-05-21T00:49:47;3.97;;;2.37;;
7160;SDS011;3622;53.576;9.978;2023-05-21T00:52:15;6.53;;;2.13;;
7160;SDS011;3622;53.576;9.978;2023-05-21T00:54:45;3.07;;;2.40;;
7160;SDS011;3622;53.576;9.978;2023-05-21T00:57:11;2.50;;;2.10;;
7160;SDS011;3622;53.576;9.978;2023-05-21T00:59:36;2.27;;;2.03;;
7160;SDS011;3622;53.576;9.978;2023-05-21T01:02:02;8.83;;;2.30;;
7160;SDS011;3622;53.576;9.978;2023-05-21T01:04:30;3.83;;;1.90;;
7160;SDS011;3622;53.576;9.978;2023-05-21T01:06:57;2.30;;;2.20;;
7160;SDS011;3622;53.576;9.978;2023-05-21T01:09:26;2.97;;;1.80;;
7160;SDS011;3622;53.576;9.978;2023-05-21T01:11:52;4.90;;;2.73;;
7160;SDS011;3622;53.576;9.978;2023-05-21T01:14:20;4.80;;;2.53;;
7160;SDS011;3622;53.576;9.978;2023-05-21T01:16:47;2.07;;;1.93;;
7160;SDS011;3622;53.576;9.978;2023-05-21T01:19:22;7.50;;;2.23;;
7160;SDS011;3622;53.576;9.978;2023-05-21T01:21:52;5.90;;;2.33;;
7160;SDS011;3622;53.576;9.978;2023-05-21T01:24:20;2.80;;;2.30;;
7160;SDS011;3622;53.576;9.978;2023-05-21T01:26:46;2.23;;;2.13;;
7160;SDS011;3622;53.576;9.978;2023-05-21T01:29:12;3.00;;;2.23;;
7160;SDS011;3622;53.576;9.978;2023-05-21T01:31:44;13.50;;;1.90;;
7160;SDS011;3622;53.576;9.978;2023-05-21T01:34:13;2.53;;;2.00;;
7160;SDS011;3622;53.576;9.978;2023-05-21T01:36:43;8.93;;;2.87;;
7160;SDS011;3622;53.576;9.978;2023-05-21T01:39:14;4.17;;;2.33;;
7160;SDS011;3622;53.576;9.978;2023-05-21T01:41:41;2.47;;;2.27;;
7160;SDS011;3622;53.576;9.978;2023-05-21T01:44:08;3.37;;;2.30;;
7160;SDS011;3622;53.576;9.978;2023-05-21T01:46:34;24.00;;;14.67;;
7160;SDS011;3622;53.576;9.978;2023-05-21T01:49:00;15.63;;;10.23;;
7160;SDS011;3622;53.576;9.978;2023-05-21T01:51:27;63.83;;;34.10;;
7160;SDS011;3622;53.576;9.978;2023-05-21T01:53:53;85.97;;;40.83;;
7160;SDS011;3622;53.576;9.978;2023-05-21T01:56:19;7.40;;;3.30;;
7160;SDS011;3622;53.576;9.978;2023-05-21T01:58:49;20.80;;;10.00;;
7160;SDS011;3622;53.576;9.978;2023-05-21T02:01:15;10.90;;;7.50;;
7160;SDS011;3622;53.576;9.978;2023-05-21T02:03:41;13.93;;;9.67;;
7160;SDS011;3622;53.576;9.978;2023-05-21T02:06:07;75.53;;;41.07;;
7160;SDS011;3622;53.576;9.978;2023-05-21T02:08:33;30.57;;;16.47;;
7160;SDS011;3622;53.576;9.978;2023-05-21T02:10:59;8.60;;;6.20;;
7160;SDS011;3622;53.576;9.978;2023-05-21T02:13:25;23.93;;;12.27;;
7160;SDS011;3622;53.576;9.978;2023-05-21T02:15:53;3.03;;;2.70;;
7160;SDS011;3622;53.576;9.978;2023-05-21T02:18:20;18.80;;;12.40;;
7160;SDS011;3622;53.576;9.978;2023-05-21T02:20:46;14.17;;;7.77;;
7160;SDS011;3622;53.576;9.978;2023-05-21T02:23:12;13.10;;;7.53;;
7160;SDS011;3622;53.576;9.978;2023-05-21T02:25:38;4.30;;;3.00;;
7160;SDS011;3622;53.576;9.978;2023-05-21T02:28:04;8.03;;;4.50;;
7160;SDS011;3622;53.576;9.978;2023-05-21T02:30:30;6.90;;;3.40;;
7160;SDS011;3622;53.576;9.978;2023-05-21T02:32:56;5.33;;;2.90;;
7160;SDS011;3622;53.576;9.978;2023-05-21T02:35:23;3.23;;;2.70;;
7160;SDS011;3622;53.576;9.978;2023-05-21T02:37:49;4.77;;;3.10;;
7160;SDS011;3622;53.576;9.978;2023-05-21T02:40:15;3.17;;;2.40;;
7160;SDS011;3622;53.576;9.978;2023-05-21T02:42:41;4.53;;;2.70;;
7160;SDS011;3622;53.576;9.978;2023-05-21T02:45:10;3.63;;;2.43;;
7160;SDS011;3622;53.576;9.978;2023-05-21T02:47:36;2.97;;;2.70;;
7160;SDS011;3622;53.576;9.978;2023-05-21T02:50:04;5.50;;;3.00;;
7160;SDS011;3622;53.576;9.978;2023-05-21T02:52:30;4.23;;;2.73;;
7160;SDS011;3622;53.576;9.978;2023-05-21T02:54:56;2.93;;;2.63;;
7160;SDS011;3622;53.576;9.978;2023-05-21T02:57:22;5.63;;;2.60;;
7160;SDS011;3622;53.576;9.978;2023-05-21T02:59:48;3.77;;;2.30;;
7160;SDS011;3622;53.576;9.978;2023-05-21T03:02:14;7.53;;;2.93;;
7160;SDS011;3622;53.576;9.978;2023-05-21T03:04:40;4.90;;;2.87;;
7160;SDS011;3622;53.576;9.978;2023-05-21T03:07:13;6.93;;;2.87;;
7160;SDS011;3622;53.576;9.978;2023-05-21T03:09:40;2.83;;;2.50;;
7160;SDS011;3622;53.576;9.978;2023-05-21T03:12:06;9.07;;;2.87;;
7160;SDS011;3622;53.576;9.978;2023-05-21T03:14:33;4.70;;;2.73;;
7160;SDS011;3622;53.576;9.978;2023-05-21T03:16:59;3.67;;;2.77;;
7160;SDS011;3622;53.576;9.978;2023-05-21T03:19:27;5.63;;;3.30;;
7160;SDS011;3622;53.576;9.978;2023-05-21T03:21:55;5.77;;;2.80;;
7160;SDS011;3622;53.576;9.978;2023-05-21T03:24:21;3.80;;;2.87;;
7160;SDS011;3622;53.576;9.978;2023-05-21T03:26:47;3.87;;;2.97;;
7160;SDS011;3622;53.576;9.978;2023-05-21T03:29:14;12.40;;;2.90;;
7160;SDS011;3622;53.576;9.978;2023-05-21T03:31:40;4.30;;;3.00;;
7160;SDS011;3622;53.576;9.978;2023-05-21T03:34:06;3.73;;;3.33;;
7160;SDS011;3622;53.576;9.978;2023-05-21T03:36:32;4.17;;;2.87;;
7160;SDS011;3622;53.576;9.978;2023-05-21T03:38:58;5.50;;;3.27;;
7160;SDS011;3622;53.576;9.978;2023-05-21T03:41:24;8.63;;;3.30;;
7160;SDS011;3622;53.576;9.978;2023-05-21T03:43:50;10.13;;;3.20;;
7160;SDS011;3622;53.576;9.978;2023-05-21T03:46:16;6.43;;;3.27;;
7160;SDS011;3622;53.576;9.978;2023-05-21T03:48:42;4.07;;;3.30;;
7160;SDS011;3622;53.576;9.978;2023-05-21T03:51:08;7.10;;;3.73;;
7160;SDS011;3622;53.576;9.978;2023-05-21T03:53:34;3.13;;;2.50;;
7160;SDS011;3622;53.576;9.978;2023-05-21T03:56:00;3.27;;;3.00;;
7160;SDS011;3622;53.576;9.978;2023-05-21T03:58:26;4.93;;;2.93;;
7160;SDS011;3622;53.576;9.978;2023-05-21T04:00:52;5.27;;;3.03;;
7160;SDS011;3622;53.576;9.978;2023-05-21T04:03:18;4.90;;;3.13;;
7160;SDS011;3622;53.576;9.978;2023-05-21T04:05:44;7.83;;;3.20;;
7160;SDS011;3622;53.576;9.978;2023-05-21T04:08:10;4.10;;;2.97;;
7160;SDS011;3622;53.576;9.978;2023-05-21T04:10:37;4.03;;;2.67;;
7160;SDS011;3622;53.576;9.978;2023-05-21T04:13:03;4.47;;;2.77;;
7160;SDS011;3622;53.576;9.978;2023-05-21T04:15:29;3.20;;;2.90;;
7160;SDS011;3622;53.576;9.978;2023-05-21T04:17:55;4.27;;;2.93;;
7160;SDS011;3622;53.576;9.978;2023-05-21T04:20:22;8.03;;;3.00;;
7160;SDS011;3622;53.576;9.978;2023-05-21T04:22:48;6.70;;;3.50;;
7160;SDS011;3622;53.576;9.978;2023-05-21T04:25:14;7.77;;;3.27;;
7160;SDS011;3622;53.576;9.978;2023-05-21T04:27:40;5.43;;;4.30;;
7160;SDS011;3622;53.576;9.978;2023-05-21T04:30:07;7.30;;;3.23;;
7160;SDS011;3622;53.576;9.978;2023-05-21T04:32:33;6.40;;;3.50;;
7160;SDS011;3622;53.576;9.978;2023-05-21T04:34:59;4.43;;;3.37;;
7160;SDS011;3622;53.576;9.978;2023-05-21T04:37:26;3.63;;;3.30;;
7160;SDS011;3622;53.576;9.978;2023-05-21T04:39:56;11.93;;;3.50;;
7160;SDS011;3622;53.576;9.978;2023-05-21T04:42:22;7.73;;;3.20;;
7160;SDS011;3622;53.576;9.978;2023-05-21T04:44:48;5.00;;;3.03;;
7160;SDS011;3622;53.576;9.978;2023-05-21T04:47:15;4.97;;;3.10;;
7160;SDS011;3622;53.576;9.978;2023-05-21T04:49:42;7.00;;;3.60;;
7160;SDS011;3622;53.576;9.978;2023-05-21T04:52:08;13.07;;;4.83;;
7160;SDS011;3622;53.576;9.978;2023-05-21T04:54:34;12.10;;;4.00;;
7160;SDS011;3622;53.576;9.978;2023-05-21T04:57:03;6.83;;;3.67;;
7160;SDS011;3622;53.576;9.978;2023-05-21T04:59:29;7.20;;;4.13;;
7160;SDS011;3622;53.576;9.978;2023-05-21T05:01:55;5.60;;;3.13;;
7160;SDS011;3622;53.576;9.978;2023-05-21T05:04:21;5.40;;;3.47;;
7160;SDS011;3622;53.576;9.978;2023-05-21T05:06:47;11.27;;;3.93;;
7160;SDS011;3622;53.576;9.978;2023-05-21T05:09:14;6.20;;;4.17;;
7160;SDS011;3622;53.576;9.978;2023-05-21T05:11:40;13.33;;;3.90;;
7160;SDS011;3622;53.576;9.978;2023-05-21T05:14:06;11.90;;;4.97;;
7160;SDS011;3622;53.576;9.978;2023-05-21T05:16:32;7.43;;;4.03;;
7160;SDS011;3622;53.576;9.978;2023-05-21T05:18:59;11.40;;;5.27;;
7160;SDS011;3622;53.576;9.978;2023-05-21T05:21:25;9.63;;;4.60;;
7160;SDS011;3622;53.576;9.978;2023-05-21T05:23:51;5.60;;;3.83;;
7160;SDS011;3622;53.576;9.978;2023-05-21T05:26:17;7.33;;;4.60;;
7160;SDS011;3622;53.576;9.978;2023-05-21T05:28:43;6.73;;;4.13;;
7160;SDS011;3622;53.576;9.978;2023-05-21T05:31:10;12.80;;;4.13;;
7160;SDS011;3622;53.576;9.978;2023-05-21T05:33:36;7.00;;;4.10;;
7160;SDS011;3622;53.576;9.978;2023-05-21T05:36:02;8.67;;;4.70;;
7160;SDS011;3622;53.576;9.978;2023-05-21T05:38:28;7.00;;;3.90;;
7160;SDS011;3622;53.576;9.978;2023-05-21T05:40:54;10.50;;;4.60;;
7160;SDS011;3622;53.576;9.978;2023-05-21T05:43:20;7.87;;;4.50;;
7160;SDS011;3622;53.576;9.978;2023-05-21T05:45:46;3.90;;;3.60;;
7160;SDS011;3622;53.576;9.978;2023-05-21T05:48:12;11.83;;;4.70;;
7160;SDS011;3622;53.576;9.978;2023-05-21T05:50:38;11.53;;;6.40;;
7160;SDS011;3622;53.576;9.978;2023-05-21T05:53:03;11.03;;;4.67;;
7160;SDS011;3622;53.576;9.978;2023-05-21T05:55:31;16.60;;;9.50;;
7160;SDS011;3622;53.576;9.978;2023-05-21T05:57:57;8.17;;;4.27;;
7160;SDS011;3622;53.576;9.978;2023-05-21T06:00:23;7.00;;;4.43;;
7160;SDS011;3622;53.576;9.978;2023-05-21T06:02:49;8.53;;;4.33;;
7160;SDS011;3622;53.576;9.978;2023-05-21T06:05:15;9.27;;;4.70;;
7160;SDS011;3622;53.576;9.978;2023-05-21T06:07:41;13.43;;;5.10;;
7160;SDS011;3622;53.576;9.978;2023-05-21T06:10:07;13.03;;;4.90;;
7160;SDS011;3622;53.576;9.978;2023-05-21T06:12:33;10.63;;;4.53;;
7160;SDS011;3622;53.576;9.978;2023-05-21T06:14:59;13.73;;;5.07;;
7160;SDS011;3622;53.576;9.978;2023-05-21T06:17:25;13.10;;;5.43;;
7160;SDS011;3622;53.576;9.978;2023-05-21T06:19:51;12.70;;;6.17;;
7160;SDS011;3622;53.576;9.978;2023-05-21T06:22:17;15.10;;;6.67;;
7160;SDS011;3622;53.576;9.978;2023-05-21T06:24:43;20.03;;;8.37;;
7160;SDS011;3622;53.576;9.978;2023-05-21T06:27:09;14.23;;;6.97;;
7160;SDS011;3622;53.576;9.978;2023-05-21T06:29:35;19.00;;;6.17;;
7160;SDS011;3622;53.576;9.978;2023-05-21T06:32:01;12.87;;;5.60;;
7160;SDS011;3622;53.576;9.978;2023-05-21T06:34:27;16.70;;;6.47;;
7160;SDS011;3622;53.576;9.978;2023-05-21T06:36:54;14.63;;;5.50;;
7160;SDS011;3622;53.576;9.978;2023-05-21T06:39:20;9.43;;;5.00;;
7160;SDS011;3622;53.576;9.978;2023-05-21T06:41:46;11.60;;;5.33;;
7160;SDS011;3622;53.576;9.978;2023-05-21T06:44:11;9.03;;;5.53;;
7160;SDS011;3622;53.576;9.978;2023-05-21T06:46:38;10.20;;;5.13;;
7160;SDS011;3622;53.576;9.978;2023-05-21T06:49:04;10.20;;;6.03;;
7160;SDS011;3622;53.576;9.978;2023-05-21T06:51:31;5.73;;;5.20;;
7160;SDS011;3622;53.576;9.978;2023-05-21T06:53:57;84.70;;;15.10;;
7160;SDS011;3622;53.576;9.978;2023-05-21T06:56:23;8.63;;;6.17;;
7160;SDS011;3622;53.576;9.978;2023-05-21T06:58:50;10.57;;;5.93;;
7160;SDS011;3622;53.576;9.978;2023-05-21T07:01:16;7.67;;;5.83;;
7160;SDS011;3622;53.576;9.978;2023-05-21T07:03:42;10.57;;;6.50;;
7160;SDS011;3622;53.576;9.978;2023-05-21T07:06:08;10.90;;;6.17;;
7160;SDS011;3622;53.576;9.978;2023-05-21T07:08:34;9.80;;;6.70;;
7160;SDS011;3622;53.576;9.978;2023-05-21T07:11:00;16.77;;;6.93;;
7160;SDS011;3622;53.576;9.978;2023-05-21T07:13:26;9.90;;;6.17;;
7160;SDS011;3622;53.576;9.978;2023-05-21T07:15:52;7.00;;;5.87;;
7160;SDS011;3622;53.576;9.978;2023-05-21T07:18:18;11.50;;;7.10;;
7160;SDS011;3622;53.576;9.978;2023-05-21T07:20:44;16.77;;;7.67;;
7160;SDS011;3622;53.576;9.978;2023-05-21T07:23:10;11.00;;;6.93;;
7160;SDS011;3622;53.576;9.978;2023-05-21T07:25:36;18.60;;;8.13;;
7160;SDS011;3622;53.576;9.978;2023-05-21T07:28:02;15.47;;;7.87;;
7160;SDS011;3622;53.576;9.978;2023-05-21T07:30:28;9.30;;;7.07;;
7160;SDS011;3622;53.576;9.978;2023-05-21T07:32:53;12.67;;;7.53;;
7160;SDS011;3622;53.576;9.978;2023-05-21T07:35:19;12.47;;;8.40;;
7160;SDS011;3622;53.576;9.978;2023-05-21T07:37:45;11.27;;;8.03;;
7160;SDS011;3622;53.576;9.978;2023-05-21T07:40:12;15.13;;;8.50;;
7160;SDS011;3622;53.576;9.978;2023-05-21T07:42:38;14.40;;;8.53;;
7160;SDS011;3622;53.576;9.978;2023-05-21T07:45:04;17.80;;;8.93;;
7160;SDS011;3622;53.576;9.978;2023-05-21T07:47:30;19.00;;;8.60;;
7160;SDS011;3622;53.576;9.978;2023-05-21T07:49:56;19.43;;;9.37;;
7160;SDS011;3622;53.576;9.978;2023-05-21T07:52:25;19.93;;;9.50;;
7160;SDS011;3622;53.576;9.978;2023-05-21T07:54:51;14.43;;;8.30;;
7160;SDS011;3622;53.576;9.978;2023-05-21T07:57:17;20.67;;;9.77;;
7160;SDS011;3622;53.576;9.978;2023-05-21T07:59:43;20.53;;;10.13;;
7160;SDS011;3622;53.576;9.978;2023-05-21T08:02:09;23.40;;;12.33;;
7160;SDS011;3622;53.576;9.978;2023-05-21T08:04:35;21.93;;;12.57;;
7160;SDS011;3622;53.576;9.978;2023-05-21T08:07:02;16.47;;;10.00;;
7160;SDS011;3622;53.576;9.978;2023-05-21T08:09:28;26.80;;;10.50;;
7160;SDS011;3622;53.576;9.978;2023-05-21T08:11:54;17.20;;;9.63;;
7160;SDS011;3622;53.576;9.978;2023-05-21T08:14:20;22.90;;;10.30;;
7160;SDS011;3622;53.576;9.978;2023-05-21T08:16:46;15.30;;;9.43;;
7160;SDS011;3622;53.576;9.978;2023-05-21T08:19:11;15.77;;;8.67;;
7160;SDS011;3622;53.576;9.978;2023-05-21T08:21:37;19.30;;;10.10;;
7160;SDS011;3622;53.576;9.978;2023-05-21T08:24:03;16.40;;;9.57;;
7160;SDS011;3622;53.576;9.978;2023-05-21T08:26:29;14.57;;;9.50;;
7160;SDS011;3622;53.576;9.978;2023-05-21T08:28:55;18.37;;;10.87;;
7160;SDS011;3622;53.576;9.978;2023-05-21T08:31:22;25.17;;;10.43;;
7160;SDS011;3622;53.576;9.978;2023-05-21T08:33:51;17.53;;;11.23;;
7160;SDS011;3622;53.576;9.978;2023-05-21T08:36:17;19.87;;;12.80;;
7160;SDS011;3622;53.576;9.978;2023-05-21T08:38:43;14.33;;;10.20;;
7160;SDS011;3622;53.576;9.978;2023-05-21T08:41:10;15.17;;;10.90;;
7160;SDS011;3622;53.576;9.978;2023-05-21T08:43:36;24.20;;;11.67;;
7160;SDS011;3622;53.576;9.978;2023-05-21T08:46:06;26.43;;;12.10;;
7160;SDS011;3622;53.576;9.978;2023-05-21T08:48:33;22.87;;;11.73;;
7160;SDS011;3622;53.576;9.978;2023-05-21T08:50:59;25.63;;;11.40;;
7160;SDS011;3622;53.576;9.978;2023-05-21T08:53:25;17.50;;;11.10;;
7160;SDS011;3622;53.576;9.978;2023-05-21T08:55:51;23.47;;;11.90;;
7160;SDS011;3622;53.576;9.978;2023-05-21T08:58:19;17.07;;;10.93;;
7160;SDS011;3622;53.576;9.978;2023-05-21T09:00:45;22.63;;;12.13;;
7160;SDS011;3622;53.576;9.978;2023-05-21T09:03:11;16.90;;;11.33;;
7160;SDS011;3622;53.576;9.978;2023-05-21T09:05:42;15.00;;;10.27;;
7160;SDS011;3622;53.576;9.978;2023-05-21T09:10:34;18.50;;;11.40;;
7160;SDS011;3622;53.576;9.978;2023-05-21T09:13:01;19.47;;;12.30;;
7160;SDS011;3622;53.576;9.978;2023-05-21T09:15:28;20.90;;;12.23;;
7160;SDS011;3622;53.576;9.978;2023-05-21T09:17:54;20.80;;;12.50;;
7160;SDS011;3622;53.576;9.978;2023-05-21T09:20:24;28.67;;;13.43;;
7160;SDS011;3622;53.576;9.978;2023-05-21T09:22:51;26.17;;;14.30;;
7160;SDS011;3622;53.576;9.978;2023-05-21T09:25:21;19.23;;;12.93;;
7160;SDS011;3622;53.576;9.978;2023-05-21T09:27:47;17.30;;;11.33;;
7160;SDS011;3622;53.576;9.978;2023-05-21T09:30:14;19.27;;;12.50;;
7160;SDS011;3622;53.576;9.978;2023-05-21T09:32:43;21.20;;;12.70;;
7160;SDS011;3622;53.576;9.978;2023-05-21T09:37:36;20.77;;;12.73;;
7160;SDS011;3622;53.576;9.978;2023-05-21T09:40:14;23.80;;;11.77;;
7160;SDS011;3622;53.576;9.978;2023-05-21T09:42:42;25.00;;;13.33;;
7160;SDS011;3622;53.576;9.978;2023-05-21T09:45:08;22.57;;;12.93;;
7160;SDS011;3622;53.576;9.978;2023-05-21T09:47:39;20.07;;;13.13;;
7160;SDS011;3622;53.576;9.978;2023-05-21T09:50:06;18.90;;;11.90;;
7160;SDS011;3622;53.576;9.978;2023-05-21T09:52:34;23.30;;;13.43;;
7160;SDS011;3622;53.576;9.978;2023-05-21T09:55:01;23.07;;;14.00;;
7160;SDS011;3622;53.576;9.978;2023-05-21T09:57:28;26.10;;;13.43;;
7160;SDS011;3622;53.576;9.978;2023-05-21T09:59:54;26.00;;;14.13;;
7160;SDS011;3622;53.576;9.978;2023-05-21T10:02:20;24.43;;;13.27;;
7160;SDS011;3622;53.576;9.978;2023-05-21T10:04:48;22.30;;;14.40;;
7160;SDS011;3622;53.576;9.978;2023-05-21T10:07:17;26.17;;;13.17;;
7160;SDS011;3622;53.576;9.978;2023-05-21T10:09:50;27.60;;;14.27;;
7160;SDS011;3622;53.576;9.978;2023-05-21T10:12:17;24.03;;;13.00;;
7160;SDS011;3622;53.576;9.978;2023-05-21T10:14:44;20.53;;;13.57;;
7160;SDS011;3622;53.576;9.978;2023-05-21T10:17:11;24.43;;;13.73;;
7160;SDS011;3622;53.576;9.978;2023-05-21T10:19:37;17.30;;;11.50;;
7160;SDS011;3622;53.576;9.978;2023-05-21T10:22:04;26.57;;;13.77;;
7160;SDS011;3622;53.576;9.978;2023-05-21T10:24:30;22.07;;;12.60;;
7160;SDS011;3622;53.576;9.978;2023-05-21T10:26:56;25.90;;;13.87;;
7160;SDS011;3622;53.576;9.978;2023-05-21T10:29:23;26.97;;;13.83;;
7160;SDS011;3622;53.576;9.978;2023-05-21T10:31:50;20.30;;;13.13;;
7160;SDS011;3622;53.576;9.978;2023-05-21T10:34:17;23.87;;;12.60;;
7160;SDS011;3622;53.576;9.978;2023-05-21T10:36:43;21.77;;;14.60;;
7160;SDS011;3622;53.576;9.978;2023-05-21T10:39:11;28.90;;;13.33;;
7160;SDS011;3622;53.576;9.978;2023-05-21T10:41:41;22.47;;;12.17;;
7160;SDS011;3622;53.576;9.978;2023-05-21T10:44:14;21.97;;;13.30;;
7160;SDS011;3622;53.576;9.978;2023-05-21T10:47:00;22.40;;;12.87;;
7160;SDS011;3622;53.576;9.978;2023-05-21T10:54:56;25.43;;;12.13;;
7160;SDS011;3622;53.576;9.978;2023-05-21T10:57:39;19.27;;;11.77;;
7160;SDS011;3622;53.576;9.978;2023-05-21T11:00:13;23.23;;;12.93;;
7160;SDS011;3622;53.576;9.978;2023-05-21T11:02:40;18.73;;;12.43;;
7160;SDS011;3622;53.576;9.978;2023-05-21T11:05:07;29.10;;;13.60;;
7160;SDS011;3622;53.576;9.978;2023-05-21T11:07:52;20.00;;;11.67;;
7160;SDS011;3622;53.576;9.978;2023-05-21T11:10:31;19.10;;;12.33;;
7160;SDS011;3622;53.576;9.978;2023-05-21T11:18:20;20.50;;;10.93;;
7160;SDS011;3622;53.576;9.978;2023-05-21T11:20:49;18.67;;;11.80;;
7160;SDS011;3622;53.576;9.978;2023-05-21T11:23:15;21.73;;;12.10;;
7160;SDS011;3622;53.576;9.978;2023-05-21T11:25:41;21.90;;;10.93;;
7160;SDS011;3622;53.576;9.978;2023-05-21T11:28:07;16.87;;;10.00;;
7160;SDS011;3622;53.576;9.978;2023-05-21T11:30:34;18.37;;;11.07;;
7160;SDS011;3622;53.576;9.978;2023-05-21T11:36:17;20.40;;;11.17;;
7160;SDS011;3622;53.576;9.978;2023-05-21T11:38:18;21.33;;;10.67;;
7160;SDS011;3622;53.576;9.978;2023-05-21T11:40:53;18.37;;;10.70;;
7160;SDS011;3622;53.576;9.978;2023-05-21T11:43:19;16.47;;;10.70;;
7160;SDS011;3622;53.576;9.978;2023-05-21T11:45:45;16.30;;;10.20;;
7160;SDS011;3622;53.576;9.978;2023-05-21T11:48:12;15.20;;;10.10;;
7160;SDS011;3622;53.576;9.978;2023-05-21T11:50:38;24.57;;;10.40;;
7160;SDS011;3622;53.576;9.978;2023-05-21T11:53:06;18.93;;;11.33;;
7160;SDS011;3622;53.576;9.978;2023-05-21T11:55:33;17.63;;;11.00;;
7160;SDS011;3622;53.576;9.978;2023-05-21T11:58:03;19.93;;;10.60;;
7160;SDS011;3622;53.576;9.978;2023-05-21T12:00:36;18.73;;;10.60;;
7160;SDS011;3622;53.576;9.978;2023-05-21T12:03:04;17.80;;;11.00;;
7160;SDS011;3622;53.576;9.978;2023-05-21T12:05:42;24.23;;;12.20;;
7160;SDS011;3622;53.576;9.978;2023-05-21T12:08:08;17.40;;;11.33;;
7160;SDS011;3622;53.576;9.978;2023-05-21T12:10:36;17.17;;;9.73;;
7160;SDS011;3622;53.576;9.978;2023-05-21T12:13:03;15.83;;;11.10;;
7160;SDS011;3622;53.576;9.978;2023-05-21T12:15:30;22.57;;;11.93;;
7160;SDS011;3622;53.576;9.978;2023-05-21T12:17:56;23.47;;;9.57;;
7160;SDS011;3622;53.576;9.978;2023-05-21T12:20:24;18.17;;;11.00;;
7160;SDS011;3622;53.576;9.978;2023-05-21T12:22:50;17.67;;;10.30;;
7160;SDS011;3622;53.576;9.978;2023-05-21T12:25:16;20.97;;;11.20;;
7160;SDS011;3622;53.576;9.978;2023-05-21T12:27:43;21.17;;;11.30;;
7160;SDS011;3622;53.576;9.978;2023-05-21T12:30:10;22.50;;;12.10;;
7160;SDS011;3622;53.576;9.978;2023-05-21T12:32:39;18.50;;;11.03;;
7160;SDS011;3622;53.576;9.978;2023-05-21T12:35:08;17.13;;;11.23;;
7160;SDS011;3622;53.576;9.978;2023-05-21T12:37:34;28.47;;;12.83;;
7160;SDS011;3622;53.576;9.978;2023-05-21T12:40:04;20.70;;;12.20;;
7160;SDS011;3622;53.576;9.978;2023-05-21T12:42:33;19.67;;;11.73;;
7160;SDS011;3622;53.576;9.978;2023-05-21T12:45:05;22.00;;;12.50;;
7160;SDS011;3622;53.576;9.978;2023-05-21T12:47:32;17.43;;;12.40;;
7160;SDS011;3622;53.576;9.978;2023-05-21T12:49:58;19.40;;;11.33;;
7160;SDS011;3622;53.576;9.978;2023-05-21T12:52:26;18.60;;;11.73;;
7160;SDS011;3622;53.576;9.978;2023-05-21T12:54:53;23.27;;;12.33;;
7160;SDS011;3622;53.576;9.978;2023-05-21T12:57:21;25.20;;;12.30;;
7160;SDS011;3622;53.576;9.978;2023-05-21T12:59:53;18.50;;;11.90;;
7160;SDS011;3622;53.576;9.978;2023-05-21T13:04:52;20.30;;;12.30;;
7160;SDS011;3622;53.576;9.978;2023-05-21T13:07:19;15.67;;;11.90;;
7160;SDS011;3622;53.576;9.978;2023-05-21T13:09:45;20.10;;;12.57;;
7160;SDS011;3622;53.576;9.978;2023-05-21T13:12:11;20.20;;;11.90;;
7160;SDS011;3622;53.576;9.978;2023-05-21T13:14:37;23.37;;;13.93;;
7160;SDS011;3622;53.576;9.978;2023-05-21T13:17:03;21.63;;;12.63;;
7160;SDS011;3622;53.576;9.978;2023-05-21T13:19:29;21.80;;;11.37;;
7160;SDS011;3622;53.576;9.978;2023-05-21T13:21:55;22.03;;;12.20;;
7160;SDS011;3622;53.576;9.978;2023-05-21T13:24:21;26.50;;;11.67;;
7160;SDS011;3622;53.576;9.978;2023-05-21T13:26:47;19.97;;;12.33;;
7160;SDS011;3622;53.576;9.978;2023-05-21T13:29:13;19.80;;;12.93;;
7160;SDS011;3622;53.576;9.978;2023-05-21T13:31:40;20.03;;;12.40;;
7160;SDS011;3622;53.576;9.978;2023-05-21T13:34:06;19.20;;;11.80;;
7160;SDS011;3622;53.576;9.978;2023-05-21T13:36:32;23.90;;;12.10;;
7160;SDS011;3622;53.576;9.978;2023-05-21T13:38:58;19.03;;;12.50;;
7160;SDS011;3622;53.576;9.978;2023-05-21T13:41:24;20.13;;;11.83;;
7160;SDS011;3622;53.576;9.978;2023-05-21T13:43:50;25.77;;;12.77;;
7160;SDS011;3622;53.576;9.978;2023-05-21T13:46:16;25.00;;;13.33;;
7160;SDS011;3622;53.576;9.978;2023-05-21T13:48:42;18.63;;;11.60;;
7160;SDS011;3622;53.576;9.978;2023-05-21T13:51:08;22.43;;;12.23;;
7160;SDS011;3622;53.576;9.978;2023-05-21T13:53:34;16.63;;;11.43;;
7160;SDS011;3622;53.576;9.978;2023-05-21T13:56:00;25.60;;;12.93;;
7160;SDS011;3622;53.576;9.978;2023-05-21T13:58:26;22.07;;;12.23;;
7160;SDS011;3622;53.576;9.978;2023-05-21T14:00:52;20.30;;;12.30;;
7160;SDS011;3622;53.576;9.978;2023-05-21T14:03:18;14.70;;;11.00;;
7160;SDS011;3622;53.576;9.978;2023-05-21T14:05:44;22.77;;;11.77;;
7160;SDS011;3622;53.576;9.978;2023-05-21T14:08:12;38.90;;;14.53;;
7160;SDS011;3622;53.576;9.978;2023-05-21T14:10:40;21.43;;;11.63;;
7160;SDS011;3622;53.576;9.978;2023-05-21T14:13:06;19.67;;;11.27;;
7160;SDS011;3622;53.576;9.978;2023-05-21T14:15:32;21.00;;;11.53;;
7160;SDS011;3622;53.576;9.978;2023-05-21T14:17:58;17.77;;;11.27;;
7160;SDS011;3622;53.576;9.978;2023-05-21T14:20:24;16.27;;;10.73;;
7160;SDS011;3622;53.576;9.978;2023-05-21T14:22:50;20.43;;;12.10;;
7160;SDS011;3622;53.576;9.978;2023-05-21T14:25:16;14.20;;;10.40;;
7160;SDS011;3622;53.576;9.978;2023-05-21T14:27:42;17.10;;;10.40;;
7160;SDS011;3622;53.576;9.978;2023-05-21T14:30:08;16.07;;;11.13;;
7160;SDS011;3622;53.576;9.978;2023-05-21T14:32:34;15.33;;;9.67;;
7160;SDS011;3622;53.576;9.978;2023-05-21T14:35:00;20.20;;;11.93;;
7160;SDS011;3622;53.576;9.978;2023-05-21T14:37:26;14.50;;;10.03;;
7160;SDS011;3622;53.576;9.978;2023-05-21T14:39:52;14.83;;;9.60;;
7160;SDS011;3622;53.576;9.978;2023-05-21T14:42:18;15.17;;;9.67;;
7160;SDS011;3622;53.576;9.978;2023-05-21T14:44:44;17.03;;;10.43;;
7160;SDS011;3622;53.576;9.978;2023-05-21T14:47:10;14.80;;;10.33;;
7160;SDS011;3622;53.576;9.978;2023-05-21T14:49:36;14.30;;;10.20;;
7160;SDS011;3622;53.576;9.978;2023-05-21T14:52:02;12.90;;;9.40;;
7160;SDS011;3622;53.576;9.978;2023-05-21T14:54:28;15.20;;;10.20;;
7160;SDS011;3622;53.576;9.978;2023-05-21T14:56:54;16.47;;;9.93;;
7160;SDS011;3622;53.576;9.978;2023-05-21T14:59:20;17.90;;;9.93;;
7160;SDS011;3622;53.576;9.978;2023-05-21T15:01:46;20.37;;;10.53;;
7160;SDS011;3622;53.576;9.978;2023-05-21T15:04:12;16.03;;;10.30;;
7160;SDS011;3622;53.576;9.978;2023-05-21T15:06:38;15.03;;;9.50;;
7160;SDS011;3622;53.576;9.978;2023-05-21T15:09:04;14.67;;;9.80;;
7160;SDS011;3622;53.576;9.978;2023-05-21T15:11:30;15.30;;;10.03;;
7160;SDS011;3622;53.576;9.978;2023-05-21T15:13:57;19.90;;;10.27;;
7160;SDS011;3622;53.576;9.978;2023-05-21T15:16:23;17.77;;;9.00;;
7160;SDS011;3622;53.576;9.978;2023-05-21T15:18:49;13.13;;;9.30;;